createdAt,value
2023-04-02T00:00:09.994Z,72.43
2023-04-02T00:02:48.170Z,73.19
2023-04-02T00:05:19.704Z,72.22
2023-04-02T00:07:50.565Z,72.06
2023-04-02T00:10:35.358Z,73.09
2023-04-02T00:13:10.709Z,72.65
2023-04-02T00:15:40.629Z,72.62
2023-04-02T00:18:13.900Z,72.58
2023-04-02T00:20:46.845Z,72.83
2023-04-02T00:23:15.705Z,72.67
2023-04-02T00:25:45.669Z,72.81
2023-04-02T00:28:21.550Z,73.40
2023-04-02T00:30:51.229Z,72.77
2023-04-02T00:33:21.711Z,72.91
2023-04-02T00:35:51.146Z,73.19
2023-04-02T00:38:24.908Z,73.06
2023-04-02T00:40:56.947Z,72.83
2023-04-02T00:43:30.904Z,72.90
2023-04-02T00:46:03.955Z,72.90
2023-04-02T00:48:31.764Z,72.91
2023-04-02T00:51:15.950Z,73.98
2023-04-02T00:53:47.122Z,73.05
2023-04-02T00:56:37.794Z,73.39
2023-04-02T00:59:05.592Z,72.77
2023-04-02T01:01:42.743Z,73.92
2023-04-02T01:04:34.330Z,74.23
2023-04-02T01:07:10.643Z,74.01
2023-04-02T01:09:53.892Z,74.43
2023-04-02T01:12:40.494Z,73.53
2023-04-02T01:15:17.689Z,73.21
2023-04-02T01:18:38.251Z,73.11
2023-04-02T01:21:08.741Z,72.98
2023-04-02T01:23:39.618Z,73.81
2023-04-02T01:26:19.180Z,74.16
2023-04-02T01:29:01.562Z,74.00
2023-04-02T01:31:30.676Z,73.68
2023-04-02T01:33:58.290Z,74.02
2023-04-02T01:36:32.322Z,74.81
2023-04-02T01:39:14.438Z,75.21
2023-04-02T01:42:17.260Z,74.89
2023-04-02T01:44:53.806Z,74.44
2023-04-02T01:47:29.142Z,74.07
2023-04-02T01:50:05.773Z,73.64
2023-04-02T01:52:55.667Z,74.19
2023-04-02T01:55:55.426Z,74.30
2023-04-02T01:58:26.524Z,73.80
2023-04-02T02:01:16.630Z,73.91
2023-04-02T02:03:45.678Z,73.27
2023-04-02T02:06:16.723Z,73.39
2023-04-02T02:09:01.483Z,73.79
2023-04-02T02:11:31.242Z,73.22
2023-04-02T02:14:01.813Z,73.53
2023-04-02T02:16:32.093Z,73.36
2023-04-02T02:19:03.394Z,73.74
2023-04-02T02:21:44.806Z,73.88
2023-04-02T02:24:23.457Z,73.68
2023-04-02T02:27:02.176Z,73.59
2023-04-02T02:29:35.342Z,73.23
2023-04-02T02:32:07.426Z,73.28
2023-04-02T02:34:48.374Z,73.54
2023-04-02T02:37:24.274Z,73.50
2023-04-02T02:39:56.357Z,73.18
2023-04-02T02:42:37.167Z,73.23
2023-04-02T02:45:13.043Z,72.99
2023-04-02T02:47:43.886Z,72.43
2023-04-02T02:50:20.925Z,72.63
2023-04-02T02:52:58.018Z,73.08
2023-04-02T02:55:34.527Z,72.99
2023-04-02T02:58:23.737Z,72.85
2023-04-02T03:01:12.254Z,72.94
2023-04-02T03:03:42.832Z,72.63
2023-04-02T03:06:16.847Z,73.14
2023-04-02T03:09:25.756Z,73.16
2023-04-02T03:12:08.688Z,72.64
2023-04-02T03:14:43.870Z,72.74
2023-04-02T03:17:19.885Z,72.91
2023-04-02T03:19:55.454Z,72.75
2023-04-02T03:22:41.282Z,73.59
2023-04-02T03:25:33.686Z,73.10
2023-04-02T03:28:08.726Z,73.03
2023-04-02T03:30:39.148Z,72.68
2023-04-02T03:33:30.574Z,73.26
2023-04-02T03:36:21.283Z,73.31
2023-04-02T03:39:17.519Z,73.43
2023-04-02T03:42:17.978Z,72.92
2023-04-02T03:44:56.049Z,72.31
2023-04-02T03:47:34.355Z,72.50
2023-04-02T03:50:16.083Z,72.71
2023-04-02T03:52:45.076Z,72.15
2023-04-02T03:55:25.976Z,72.46
2023-04-02T03:58:09.058Z,72.56
2023-04-02T04:00:42.541Z,71.75
2023-04-02T04:03:19.352Z,71.64
2023-04-02T04:06:06.370Z,71.62
2023-04-02T04:08:50.550Z,71.18
2023-04-02T04:11:25.105Z,70.80
2023-04-02T04:14:14.749Z,70.49
2023-04-02T04:16:54.702Z,70.32
2023-04-02T04:19:32.619Z,70.06
2023-04-02T04:22:15.410Z,70.40
2023-04-02T04:24:45.961Z,69.74
2023-04-02T04:27:20.572Z,69.71
2023-04-02T04:29:58.234Z,69.60
2023-04-02T04:32:33.889Z,69.44
2023-04-02T04:35:26.796Z,69.55
2023-04-02T04:38:14.507Z,69.98
2023-04-02T04:40:52.432Z,69.81
2023-04-02T04:43:30.229Z,69.89
2023-04-02T04:46:09.501Z,69.77
2023-04-02T04:48:47.595Z,69.69
2023-04-02T04:51:30.161Z,69.63
2023-04-02T04:53:58.471Z,69.49
2023-04-02T04:56:32.238Z,69.79
2023-04-02T04:59:32.439Z,69.80
2023-04-02T05:02:11.680Z,69.58
2023-04-02T05:04:42.473Z,69.66
2023-04-02T05:07:19.312Z,69.28
2023-04-02T05:10:11.930Z,69.44
2023-04-02T05:12:48.701Z,69.16
2023-04-02T05:15:37.399Z,69.43
2023-04-02T05:18:11.981Z,69.27
2023-04-02T05:20:53.725Z,69.39
2023-04-02T05:23:28.590Z,68.92
2023-04-02T05:26:11.973Z,68.79
2023-04-02T05:29:10.942Z,68.69
2023-04-02T05:31:48.991Z,68.66
2023-04-02T05:34:25.725Z,68.52
2023-04-02T05:36:55.780Z,68.11
2023-04-02T05:39:25.873Z,68.25
2023-04-02T05:42:06.110Z,68.43
2023-04-02T05:44:59.789Z,67.99
2023-04-02T05:47:31.449Z,68.00
2023-04-02T05:50:24.933Z,67.76
2023-04-02T05:53:09.515Z,68.00
2023-04-02T05:55:55.992Z,67.15
2023-04-02T05:58:56.305Z,67.09
2023-04-02T06:01:38.178Z,67.37
2023-04-02T06:04:31.151Z,67.27
2023-04-02T06:07:18.311Z,67.41
2023-04-02T06:10:17.001Z,67.26
2023-04-02T06:12:55.131Z,67.28
2023-04-02T06:15:23.946Z,67.21
2023-04-02T06:18:08.020Z,67.40
2023-04-02T06:20:36.148Z,67.31
2023-04-02T06:23:15.666Z,67.09
2023-04-02T06:25:57.863Z,66.72
2023-04-02T06:28:40.854Z,66.60
2023-04-02T06:31:23.467Z,66.35
2023-04-02T06:33:54.738Z,66.10
2023-04-02T06:36:28.727Z,65.74
2023-04-02T06:39:07.845Z,65.34
2023-04-02T06:41:36.336Z,65.57
2023-04-02T06:44:26.368Z,65.20
2023-04-02T06:47:17.632Z,64.57
2023-04-02T06:49:58.602Z,63.98
2023-04-02T06:52:35.064Z,63.81
2023-04-02T06:55:27.333Z,63.65
2023-04-02T06:57:55.332Z,63.35
2023-04-02T07:00:43.736Z,63.04
2023-04-02T07:03:21.847Z,62.68
2023-04-02T07:05:49.516Z,62.76
2023-04-02T07:08:17.169Z,62.34
2023-04-02T07:10:44.657Z,62.24
2023-04-02T07:13:21.787Z,62.36
2023-04-02T07:15:53.064Z,62.38
2023-04-02T07:18:27.674Z,62.04
2023-04-02T07:20:56.229Z,62.29
2023-04-02T07:23:24.830Z,62.13
2023-04-02T07:25:54.909Z,62.31
2023-04-02T07:28:23.327Z,62.36
2023-04-02T07:30:51.874Z,62.76
2023-04-02T07:33:23.573Z,62.90
2023-04-02T07:35:53.383Z,62.93
2023-04-02T07:38:21.318Z,63.13
2023-04-02T07:40:48.905Z,62.71
2023-04-02T07:43:16.450Z,62.75
2023-04-02T07:45:43.938Z,62.74
2023-04-02T07:48:13.803Z,62.29
2023-04-02T07:50:41.893Z,61.92
2023-04-02T07:53:27.833Z,61.31
2023-04-02T07:55:56.733Z,61.44
2023-04-02T07:58:24.484Z,61.75
2023-04-02T08:00:52.096Z,61.22
2023-04-02T08:03:20.425Z,61.14
2023-04-02T08:05:54.026Z,61.42
2023-04-02T08:08:23.295Z,61.52
2023-04-02T08:10:51.567Z,61.44
2023-04-02T08:13:19.262Z,61.83
2023-04-02T08:15:49.162Z,61.71
2023-04-02T08:18:16.900Z,62.38
2023-04-02T08:20:48.981Z,62.01
2023-04-02T08:23:18.123Z,61.96
2023-04-02T08:25:46.701Z,61.97
2023-04-02T08:28:14.547Z,62.37
2023-04-02T08:30:42.640Z,62.73
2023-04-02T08:33:10.993Z,62.69
2023-04-02T08:35:38.886Z,63.01
2023-04-02T08:38:07.024Z,62.91
2023-04-02T08:40:38.674Z,63.54
2023-04-02T08:43:24.866Z,63.89
2023-04-02T08:46:06.628Z,63.67
2023-04-02T08:48:37.217Z,63.64
2023-04-02T08:51:06.259Z,63.94
2023-04-02T08:53:37.919Z,63.90
2023-04-02T08:56:19.066Z,63.89
2023-04-02T08:59:12.961Z,63.80
2023-04-02T09:01:52.496Z,64.04
2023-04-02T09:04:26.285Z,64.23
2023-04-02T09:06:56.793Z,63.88
2023-04-02T09:09:25.838Z,63.98
2023-04-02T09:12:04.426Z,64.20
2023-04-02T09:14:34.829Z,63.87
2023-04-02T09:17:04.234Z,64.12
2023-04-02T09:19:37.794Z,63.85
2023-04-02T09:22:07.713Z,63.73
2023-04-02T09:24:37.832Z,63.89
2023-04-02T09:27:19.768Z,63.98
2023-04-02T09:29:52.452Z,64.05
2023-04-02T09:32:35.702Z,64.12
2023-04-02T09:35:22.454Z,64.28
2023-04-02T09:38:11.693Z,64.15
2023-04-02T09:40:54.271Z,64.31
2023-04-02T09:43:24.588Z,64.15
2023-04-02T09:46:00.182Z,64.20
2023-04-02T09:49:01.067Z,63.72
2023-04-02T09:51:38.465Z,63.64
2023-04-02T09:54:13.860Z,63.54
2023-04-02T09:57:00.931Z,63.70
2023-04-02T09:59:28.987Z,63.69
2023-04-02T10:01:56.772Z,63.80
2023-04-02T10:04:47.356Z,64.08
2023-04-02T10:07:46.025Z,63.22
2023-04-02T10:10:36.913Z,63.13
2023-04-02T10:13:18.918Z,63.30
2023-04-02T10:15:46.525Z,62.74
2023-04-02T10:18:21.973Z,62.76
2023-04-02T10:20:52.846Z,62.72
2023-04-02T10:23:24.726Z,62.38
2023-04-02T10:26:36.510Z,62.21
2023-04-02T10:29:23.222Z,61.75
2023-04-02T10:32:14.139Z,61.61
2023-04-02T10:34:49.478Z,61.13
2023-04-02T10:37:47.795Z,60.38
2023-04-02T10:40:24.062Z,59.72
2023-04-02T10:43:07.291Z,59.28
2023-04-02T10:45:47.115Z,58.66
2023-04-02T10:48:31.812Z,58.71
2023-04-02T10:51:50.515Z,58.59
2023-04-02T10:54:28.066Z,55.85
2023-04-02T10:57:14.203Z,53.89
2023-04-02T10:59:49.485Z,52.86
2023-04-02T11:02:50.942Z,50.73
2023-04-02T11:05:31.301Z,51.33
2023-04-02T11:08:28.129Z,51.79
2023-04-02T11:11:04.894Z,51.42
2023-04-02T11:13:41.523Z,51.48
2023-04-02T11:16:15.292Z,51.32
2023-04-02T11:19:03.349Z,48.38
2023-04-02T11:21:30.901Z,44.48
2023-04-02T11:24:03.013Z,45.42
2023-04-02T11:26:47.506Z,47.41
2023-04-02T11:29:28.093Z,49.63
2023-04-02T11:32:15.887Z,50.49
2023-04-02T11:35:03.031Z,50.50
2023-04-02T11:37:44.947Z,52.27
2023-04-02T11:40:13.934Z,52.50
2023-04-02T11:42:50.048Z,52.63
2023-04-02T11:45:23.451Z,52.36
2023-04-02T11:48:00.832Z,51.91
2023-04-02T11:50:35.779Z,52.18
2023-04-02T11:53:12.336Z,52.37
2023-04-02T11:55:41.781Z,52.74
2023-04-02T11:58:46.777Z,53.48
2023-04-02T12:01:32.978Z,54.30
2023-04-02T12:04:09.383Z,54.07
2023-04-02T12:06:48.766Z,54.57
2023-04-02T12:09:26.147Z,55.16
2023-04-02T12:11:54.705Z,54.79
2023-04-02T12:14:36.935Z,55.90
2023-04-02T12:17:15.517Z,55.91
2023-04-02T12:19:51.703Z,55.97
2023-04-02T12:22:31.018Z,55.04
2023-04-02T12:25:02.116Z,55.35
2023-04-02T12:27:30.776Z,55.39
2023-04-02T12:30:30.836Z,55.21
2023-04-02T12:33:14.988Z,53.47
2023-04-02T12:35:44.280Z,52.51
2023-04-02T12:38:22.380Z,51.04
2023-04-02T12:41:01.461Z,50.09
2023-04-02T12:43:35.848Z,49.95
2023-04-02T12:46:06.851Z,50.11
2023-04-02T12:48:36.104Z,50.23
2023-04-02T12:51:04.708Z,50.36
2023-04-02T12:53:39.778Z,50.74
2023-04-02T12:56:10.793Z,51.22
2023-04-02T12:58:41.568Z,51.56
2023-04-02T13:01:31.574Z,52.30
2023-04-02T13:04:13.833Z,52.81
2023-04-02T13:06:47.457Z,53.28
2023-04-02T13:09:35.935Z,53.51
2023-04-02T13:12:03.920Z,53.83
2023-04-02T13:14:31.721Z,54.01
2023-04-02T13:16:59.313Z,54.48
2023-04-02T13:19:34.001Z,54.42
2023-04-02T13:22:03.222Z,54.17
2023-04-02T13:24:32.878Z,54.77
2023-04-02T13:27:04.188Z,55.00
2023-04-02T13:29:31.958Z,55.05
2023-04-02T13:32:02.790Z,54.61
2023-04-02T13:34:31.046Z,54.49
2023-04-02T13:36:59.202Z,55.00
2023-04-02T13:39:27.311Z,55.06
2023-04-02T13:41:57.455Z,54.84
2023-04-02T13:44:27.068Z,54.84
2023-04-02T13:46:55.791Z,54.95
2023-04-02T13:49:24.910Z,54.67
2023-04-02T13:51:55.127Z,54.37
2023-04-02T13:54:31.530Z,54.36
2023-04-02T13:56:59.360Z,54.42
2023-04-02T13:59:27.429Z,54.08
2023-04-02T14:02:13.500Z,54.44
2023-04-02T14:04:50.533Z,54.65
2023-04-02T14:07:27.112Z,54.70
2023-04-02T14:10:12.719Z,54.68
2023-04-02T14:12:52.151Z,54.71
2023-04-02T14:15:28.144Z,54.57
2023-04-02T14:18:24.878Z,54.49
2023-04-02T14:21:07.231Z,54.69
2023-04-02T14:23:55.535Z,54.38
2023-04-02T14:26:52.434Z,54.40
2023-04-02T14:29:51.266Z,54.04
2023-04-02T14:32:49.122Z,54.20
2023-04-02T14:35:19.631Z,54.25
2023-04-02T14:38:02.414Z,54.25
2023-04-02T14:40:38.544Z,54.17
2023-04-02T14:43:15.577Z,54.32
2023-04-02T14:45:59.541Z,54.18
2023-04-02T14:48:55.987Z,54.19
2023-04-02T14:51:41.719Z,54.51
2023-04-02T14:54:28.278Z,54.66
2023-04-02T14:57:21.637Z,54.49
2023-04-02T15:00:11.867Z,54.75
2023-04-02T15:02:47.323Z,55.01
2023-04-02T15:05:17.628Z,54.73
2023-04-02T15:08:13.727Z,55.34
2023-04-02T15:10:52.995Z,55.13
2023-04-02T15:13:27.244Z,55.40
2023-04-02T15:16:28.345Z,55.24
2023-04-02T15:18:57.953Z,55.22
2023-04-02T15:21:31.310Z,55.50
2023-04-02T15:24:09.458Z,55.62
2023-04-02T15:26:36.913Z,55.67
2023-04-02T15:29:29.018Z,55.88
2023-04-02T15:32:10.312Z,56.13
2023-04-02T15:34:53.998Z,56.04
2023-04-02T15:37:56.491Z,56.44
2023-04-02T15:40:30.436Z,56.66
2023-04-02T15:43:15.993Z,56.48
2023-04-02T15:46:01.207Z,56.84
2023-04-02T15:48:43.663Z,56.58
2023-04-02T15:51:23.035Z,56.96
2023-04-02T15:54:21.184Z,57.13
2023-04-02T15:57:00.616Z,57.30
2023-04-02T15:59:40.985Z,57.41
2023-04-02T16:02:30.199Z,57.43
2023-04-02T16:05:17.214Z,57.82
2023-04-02T16:08:12.670Z,57.91
2023-04-02T16:10:43.056Z,57.82
2023-04-02T16:13:19.372Z,57.79
2023-04-02T16:15:58.936Z,58.12
2023-04-02T16:18:37.590Z,57.81
2023-04-02T16:21:06.699Z,57.78
2023-04-02T16:23:37.075Z,58.15
2023-04-02T16:26:29.445Z,57.68
2023-04-02T16:29:27.140Z,58.14
2023-04-02T16:32:21.569Z,58.11
2023-04-02T16:35:38.175Z,58.61
2023-04-02T16:38:20.028Z,58.32
2023-04-02T16:41:09.346Z,58.29
2023-04-02T16:43:57.162Z,58.34
2023-04-02T16:46:43.735Z,58.88
2023-04-02T16:49:51.219Z,59.22
2023-04-02T16:52:41.326Z,59.02
2023-04-02T16:55:14.497Z,58.57
2023-04-02T16:58:02.849Z,58.90
2023-04-02T17:00:36.437Z,58.54
2023-04-02T17:03:36.172Z,58.87
2023-04-02T17:06:17.664Z,59.23
2023-04-02T17:09:08.399Z,58.41
2023-04-02T17:12:13.527Z,58.94
2023-04-02T17:15:09.317Z,58.98
2023-04-02T17:17:43.315Z,58.70
2023-04-02T17:20:29.483Z,58.96
2023-04-02T17:22:57.572Z,58.54
2023-04-02T17:25:30.474Z,58.61
2023-04-02T17:27:58.385Z,58.09
2023-04-02T17:30:47.244Z,58.68
2023-04-02T17:33:17.614Z,58.52
2023-04-02T17:36:00.173Z,59.04
2023-04-02T17:38:45.338Z,58.80
2023-04-02T17:41:40.472Z,58.49
2023-04-02T17:44:18.465Z,58.57
2023-04-02T17:46:54.993Z,58.41
2023-04-02T17:49:34.764Z,58.91
2023-04-02T17:52:11.703Z,58.76
2023-04-02T17:55:19.156Z,58.77
2023-04-02T17:58:01.680Z,58.75
2023-04-02T18:00:52.433Z,58.53
2023-04-02T18:03:44.389Z,58.34
2023-04-02T18:06:18.584Z,58.16
2023-04-02T18:08:57.832Z,58.75
2023-04-02T18:11:44.430Z,58.54
2023-04-02T18:14:42.672Z,58.23
2023-04-02T18:17:34.503Z,58.13
2023-04-02T18:20:21.001Z,58.14
2023-04-02T18:23:26.061Z,58.43
2023-04-02T18:26:05.823Z,58.07
2023-04-02T18:28:42.490Z,57.89
2023-04-02T18:31:41.153Z,58.05
2023-04-02T18:34:33.292Z,58.05
2023-04-02T18:37:16.770Z,57.96
2023-04-02T18:40:03.150Z,57.98
2023-04-02T18:42:49.050Z,57.77
2023-04-02T18:45:48.338Z,57.86
2023-04-02T18:48:41.380Z,57.72
2023-04-02T18:51:31.418Z,57.62
2023-04-02T18:54:38.309Z,57.89
2023-04-02T18:57:21.001Z,57.70
2023-04-02T19:00:19.247Z,57.64
2023-04-02T19:03:13.021Z,57.90
2023-04-02T19:05:51.464Z,57.85
2023-04-02T19:08:33.092Z,57.64
2023-04-02T19:11:09.386Z,57.43
2023-04-02T19:14:03.531Z,57.29
2023-04-02T19:17:02.014Z,57.54
2023-04-02T19:19:41.813Z,57.29
2023-04-02T19:23:02.557Z,57.43
2023-04-02T19:26:31.580Z,57.24
2023-04-02T19:38:38.234Z,57.21
2023-04-02T19:52:43.812Z,57.21
2023-04-02T19:55:14.603Z,57.57
2023-04-02T19:57:42.174Z,57.52
2023-04-02T20:00:14.683Z,57.66
2023-04-02T20:02:42.895Z,57.66
2023-04-02T20:05:11.665Z,57.75
2023-04-02T20:07:39.638Z,57.71
2023-04-02T20:10:08.228Z,57.78
2023-04-02T20:12:36.753Z,57.61
2023-04-02T20:15:07.699Z,57.75
2023-04-02T20:17:35.235Z,57.81
2023-04-02T20:20:02.826Z,57.78
2023-04-02T20:22:31.307Z,57.89
2023-04-02T20:24:58.800Z,58.10
2023-04-02T20:27:27.033Z,57.77
2023-04-02T20:29:54.566Z,57.88
2023-04-02T20:32:22.827Z,58.03
2023-04-02T20:34:50.506Z,58.23
2023-04-02T20:37:18.265Z,58.30
2023-04-02T20:39:45.759Z,58.30
2023-04-02T20:42:14.282Z,58.28
2023-04-02T20:44:42.137Z,58.28
2023-04-02T20:47:10.807Z,58.14
2023-04-02T20:49:38.364Z,58.19
2023-04-02T20:52:06.167Z,57.73
2023-04-02T20:54:33.800Z,57.92
2023-04-02T20:57:01.325Z,57.95
2023-04-02T20:59:30.527Z,58.02
2023-04-02T21:01:58.088Z,57.94
2023-04-02T21:04:27.291Z,57.87
2023-04-02T21:06:57.154Z,57.79
2023-04-02T21:09:24.908Z,57.91
2023-04-02T21:11:52.475Z,58.15
2023-04-02T21:14:20.154Z,58.37
2023-04-02T21:16:50.127Z,58.49
2023-04-02T21:19:17.568Z,58.42
2023-04-02T21:21:45.242Z,58.45
2023-04-02T21:24:13.105Z,58.45
2023-04-02T21:26:41.830Z,58.24
2023-04-02T21:29:11.709Z,58.30
2023-04-02T21:31:40.883Z,58.49
2023-04-02T21:34:10.298Z,58.17
2023-04-02T21:36:43.698Z,58.78
2023-04-02T21:39:17.099Z,58.85
2023-04-02T21:41:47.003Z,58.72
2023-04-02T21:44:16.534Z,58.90
2023-04-02T21:46:45.259Z,58.71
2023-04-02T21:49:15.750Z,58.98
2023-04-02T21:51:45.739Z,58.77
2023-04-02T21:54:13.763Z,59.00
2023-04-02T21:56:43.705Z,58.89
2023-04-02T21:59:13.499Z,58.80
2023-04-02T22:01:50.057Z,59.16
2023-04-02T22:04:23.045Z,59.04
2023-04-02T22:06:52.402Z,59.29
2023-04-02T22:09:22.857Z,59.25
2023-04-02T22:11:54.695Z,59.34
2023-04-02T22:14:23.469Z,59.63
2023-04-02T22:16:52.345Z,59.59
2023-04-02T22:19:20.643Z,59.73
2023-04-02T22:21:48.512Z,59.81
2023-04-02T22:24:19.092Z,60.12
2023-04-02T22:26:47.019Z,60.25
2023-04-02T22:29:15.186Z,60.02
2023-04-02T22:31:43.010Z,60.06
2023-04-02T22:34:11.098Z,60.24
2023-04-02T22:36:38.744Z,59.94
2023-04-02T22:39:09.894Z,60.28
2023-04-02T22:41:38.441Z,59.95
2023-04-02T22:44:06.000Z,60.01
2023-04-02T22:46:34.681Z,60.29
2023-04-02T22:49:02.568Z,60.52
2023-04-02T22:51:30.655Z,60.38
2023-04-02T22:53:58.316Z,60.25
2023-04-02T22:56:28.850Z,59.88
2023-04-02T22:58:56.512Z,60.09
2023-04-02T23:01:30.914Z,60.58
2023-04-02T23:03:58.925Z,61.03
2023-04-02T23:06:26.602Z,60.96
2023-04-02T23:08:54.197Z,60.90
2023-04-02T23:11:25.129Z,60.84
2023-04-02T23:13:54.835Z,60.85
2023-04-02T23:16:23.297Z,60.94
2023-04-02T23:18:51.367Z,60.86
2023-04-02T23:21:20.399Z,60.90
2023-04-02T23:23:48.874Z,60.92
2023-04-02T23:26:24.604Z,61.34
2023-04-02T23:28:52.179Z,60.78
2023-04-02T23:31:22.797Z,60.50
2023-04-02T23:33:52.654Z,60.33
2023-04-02T23:36:27.519Z,59.71
2023-04-02T23:38:58.100Z,59.77
2023-04-02T23:41:27.092Z,60.03
2023-04-02T23:43:56.309Z,59.90
2023-04-02T23:46:25.728Z,59.97
2023-04-02T23:48:54.267Z,60.15
2023-04-02T23:51:23.009Z,60.22
2023-04-02T23:53:51.671Z,60.48
2023-04-02T23:56:19.726Z,60.59
2023-04-02T23:58:47.651Z,60.71
